CheckWX is a tool to help pilots better visualize weather data.  It is not intended as a substitute for an official pre-flight weather briefing.

19:55:29 UTC

KRPH METAR
Graham Municipal Airport
Graham, Texas, USA
Current

23 mins ago

KRPH 221932Z AUTO 32006KT 10SM OVC012 06/03 A3013 RMK AO2
Observed
Nov-22 @ 19:32 UTC
Wind
  • 320° at 6 KTS
Visibility
10 SM
Flight Rules
MVFR
Cloud Levels
  • Overcast at 1,200' AGL
Temperature
C / 43°F
Dewpoint
C / 37°F
Humidity
81%
Altimeter
30.13" Hg
Pressure
1020.32 hPa
Previous

44 mins ago

KRPH 221911Z AUTO 31008G14KT 10SM OVC012 06/04 A3013 RMK AO2
Observed
Nov-22 @ 19:11 UTC
Wind
  • 310° at 8 KTS
  • Gusting to 14 KTS
Visibility
10 SM
Flight Rules
MVFR
Cloud Levels
  • Overcast at 1,200' AGL
Temperature
C / 43°F
Dewpoint
C / 39°F
Humidity
87%
Altimeter
30.13" Hg
Pressure
1020.32 hPa
Previous

1 hour ago

KRPH 221852Z AUTO 32010KT 10SM OVC012 06/04 A3014 RMK AO2
Observed
Nov-22 @ 18:52 UTC
Wind
  • 320° at 10 KTS
Visibility
10 SM
Flight Rules
MVFR
Cloud Levels
  • Overcast at 1,200' AGL
Temperature
C / 43°F
Dewpoint
C / 39°F
Humidity
87%
Altimeter
30.14" Hg
Pressure
1020.62 hPa